Rudd, Arkansas
Current Conditions -  °F | °C
As of 1:53 AM on Saturday 01 Nov 2014 (Local Time) from KHRO Reporting Station
Clear Clear  
Wind Chill: 30°   Ceiling: Unl
Heat Index: 30°   Visibility: 10mi
Dew Point: 20°   Wind: 3mph
Humidity: 66%   Direction: 350°N
Pressure: 30.4"   Gusts: NA
Location:  36.3056°N, 93.5491°W
Report Text: KHRO 010653Z AUTO 35003KT 10SM CLR M01/M07 A3040 RMK AO2 SLP298 T10111067
Loading
Personal Weather Stations






























Interactive Weather Map
Tropical Storm Tracking
New forecast layout! Learn more

10-Day Weather Forecast

Advertisements
Track Severe Weather on mobile